Time;durP1;ratioP1;P1;durP2;ratioP2;P2;SDS_P1;SDS_P2;PMS_P1;PMS_P2;Temp;Humidity;BMP_temperature;BMP_pressure;BME280_temperature;BME280_humidity;BME280_pressure;Samples;Min_cycle;Max_cycle;Signal;HPM_P1;HPM_P2
2024/03/10 00:00:25;;;;;;;9.15;5.82;;;;;;;18.21;36.31;99360.66;5073064;28;20035;-64
2024/03/10 00:02:51;;;;;;;12.60;5.47;;;;;;;18.18;37.02;99358.38;5055541;28;20044;-62
2024/03/10 00:05:16;;;;;;;10.77;5.80;;;;;;;18.16;36.02;99390.28;5055095;28;20025;-62
2024/03/10 00:07:43;;;;;;;12.48;6.45;;;;;;;18.15;36.44;99383.19;5038572;28;20098;-63
2024/03/10 00:10:10;;;;;;;12.20;5.45;;;;;;;18.14;36.83;99384.25;5039089;28;20392;-63
2024/03/10 00:12:36;;;;;;;11.52;6.22;;;;;;;18.09;36.32;99381.38;5055297;28;20468;-63
2024/03/10 00:15:01;;;;;;;13.30;5.78;;;;;;;18.04;36.25;99371.16;5055687;28;20066;-63
2024/03/10 00:17:27;;;;;;;12.82;6.15;;;;;;;17.99;36.28;99374.50;5073292;28;20020;-62
2024/03/10 00:19:52;;;;;;;12.90;6.30;;;;;;;17.93;37.24;99364.50;5054885;28;20023;-62
2024/03/10 00:22:18;;;;;;;9.43;5.07;;;;;;;17.91;36.46;99355.78;5054995;28;20025;-62
2024/03/10 00:24:43;;;;;;;11.00;5.72;;;;;;;17.89;36.54;99363.28;5055030;28;20476;-61
2024/03/10 00:27:11;;;;;;;14.30;6.53;;;;;;;17.84;36.99;99360.34;5038338;28;20501;-62
2024/03/10 00:29:37;;;;;;;12.85;6.15;;;;;;;17.84;36.48;99365.78;5055509;28;20021;-62
2024/03/10 00:32:05;;;;;;;9.88;5.30;;;;;;;17.82;36.52;99359.75;5072954;28;20028;-62
2024/03/10 00:34:31;;;;;;;13.50;6.13;;;;;;;17.80;36.44;99347.47;5054656;28;20048;-62
2024/03/10 00:36:56;;;;;;;11.95;5.78;;;;;;;17.79;36.25;99357.47;5054707;28;20107;-62
2024/03/10 00:39:22;;;;;;;17.15;6.82;;;;;;;17.78;36.39;99344.13;5073045;28;20029;-62
2024/03/10 00:41:48;;;;;;;12.05;6.05;;;;;;;17.76;36.57;99351.63;5054960;28;20086;-62
2024/03/10 00:44:13;;;;;;;13.60;6.82;;;;;;;17.72;37.10;99351.22;5054879;28;20488;-62
2024/03/10 00:46:38;;;;;;;11.85;6.18;;;;;;;17.67;36.81;99340.19;5054810;28;20070;-62
2024/03/10 00:49:04;;;;;;;12.73;6.03;;;;;;;17.66;36.86;99352.06;5054723;28;20071;-62
2024/03/10 00:51:29;;;;;;;11.45;6.00;;;;;;;17.63;37.03;99351.66;5038328;28;20033;-62
2024/03/10 00:53:55;;;;;;;11.45;5.72;;;;;;;17.60;37.12;99347.50;5072668;28;20029;-62
2024/03/10 00:56:20;;;;;;;19.52;6.70;;;;;;;17.62;37.07;99355.41;5038084;28;20514;-62
2024/03/10 00:58:45;;;;;;;9.98;5.25;;;;;;;17.62;37.32;99353.53;5054900;28;20032;-62
2024/03/10 01:01:11;;;;;;;13.18;6.30;;;;;;;17.64;37.49;99353.34;5054727;28;20035;-62
2024/03/10 01:03:40;;;;;;;11.35;5.45;;;;;;;17.61;36.97;99349.16;5055192;28;20392;-62
2024/03/10 01:06:06;;;;;;;11.38;5.30;;;;;;;17.56;37.17;99335.41;5055131;28;20029;-62
2024/03/10 01:08:32;;;;;;;13.68;6.43;;;;;;;17.56;37.75;99335.41;5051089;28;20044;-61
2024/03/10 01:10:57;;;;;;;12.07;6.65;;;;;;;17.56;36.66;99340.81;5052748;28;20025;-62
2024/03/10 01:13:23;;;;;;;13.30;6.03;;;;;;;17.52;37.34;99336.00;5051531;28;20032;-61
2024/03/10 01:15:50;;;;;;;12.60;6.28;;;;;;;17.50;36.91;99338.94;5051504;28;20033;-61
2024/03/10 01:18:15;;;;;;;10.27;5.80;;;;;;;17.48;37.59;99338.31;5055742;28;20029;-62
2024/03/10 01:20:40;;;;;;;12.48;6.22;;;;;;;17.42;37.32;99328.31;5038228;28;20044;-62
2024/03/10 01:23:06;;;;;;;14.93;6.45;;;;;;;17.45;36.87;99333.31;5054962;28;20488;-62
2024/03/10 01:25:32;;;;;;;12.63;5.78;;;;;;;17.43;37.48;99329.97;5055020;28;20033;-62
2024/03/10 01:27:57;;;;;;;12.52;6.65;;;;;;;17.41;36.79;99327.50;5056165;28;20029;-62
2024/03/10 01:30:23;;;;;;;11.63;5.55;;;;;;;17.39;36.62;99323.34;5056042;28;20588;-62
2024/03/10 01:32:48;;;;;;;14.27;6.00;;;;;;;17.37;36.73;99322.69;5054641;28;20090;-62
2024/03/10 01:35:13;;;;;;;12.65;5.82;;;;;;;17.37;37.37;99314.56;5038117;28;20429;-62
2024/03/10 01:37:39;;;;;;;14.25;6.32;;;;;;;17.35;37.91;99311.25;5054678;28;20032;-62
2024/03/10 01:40:05;;;;;;;12.73;6.38;;;;;;;17.34;37.27;99309.59;5055139;28;20508;-62
2024/03/10 01:42:31;;;;;;;11.65;5.53;;;;;;;17.35;36.94;99308.56;5055846;28;20052;-63
2024/03/10 01:44:58;;;;;;;10.80;5.43;;;;;;;17.35;36.46;99295.00;5054541;28;20162;-63
2024/03/10 01:47:23;;;;;;;9.88;6.05;;;;;;;17.38;37.15;99310.84;5054362;28;20493;-63
2024/03/10 01:49:49;;;;;;;16.40;6.47;;;;;;;17.37;37.11;99292.91;5055669;28;20029;-63
2024/03/10 01:52:15;;;;;;;13.95;5.90;;;;;;;17.38;36.87;99295.44;5054313;28;20488;-63
2024/03/10 01:54:41;;;;;;;12.68;5.97;;;;;;;17.37;37.00;99292.91;5054413;28;20095;-63
2024/03/10 01:57:06;;;;;;;11.85;5.93;;;;;;;17.34;36.89;99285.22;5054556;28;20041;-63
2024/03/10 01:59:32;;;;;;;14.55;5.60;;;;;;;17.36;37.01;99285.88;5054519;28;20025;-63
2024/03/10 02:01:58;;;;;;;12.52;5.70;;;;;;;17.36;37.07;99292.09;5037670;28;20083;-63
2024/03/10 02:04:23;;;;;;;15.60;6.63;;;;;;;17.32;37.11;99279.19;5054151;28;20169;-63
2024/03/10 02:06:50;;;;;;;13.98;6.25;;;;;;;17.37;36.93;99288.34;5055786;28;20477;-62
2024/03/10 02:09:18;;;;;;;11.77;6.85;;;;;;;17.38;37.30;99284.59;5057511;28;20027;-63
2024/03/10 02:11:44;;;;;;;11.05;6.25;;;;;;;17.37;37.59;99290.22;5057857;28;20412;-63
2024/03/10 02:14:10;;;;;;;10.60;5.78;;;;;;;17.39;37.39;99280.84;5057513;28;20028;-63
2024/03/10 02:16:35;;;;;;;12.05;5.70;;;;;;;17.40;37.11;99281.69;5041210;28;20021;-63
2024/03/10 02:19:01;;;;;;;11.95;5.75;;;;;;;17.38;37.63;99264.81;5057303;28;20096;-63
2024/03/10 02:21:27;;;;;;;12.65;6.40;;;;;;;17.40;37.01;99263.56;5040671;28;20112;-63
2024/03/10 02:24:16;;;;;;;12.70;6.57;;;;;;;17.38;36.84;99268.38;5074873;28;20039;-63
2024/03/10 02:26:48;;;;;;;13.90;6.28;;;;;;;17.36;37.27;99261.50;5040578;28;20112;-62
2024/03/10 02:29:25;;;;;;;9.88;5.32;;;;;;;17.39;37.23;99263.78;5057372;28;20044;-62
2024/03/10 02:48:19;;;;;;;12.00;6.40;;;;;;;17.40;37.13;99265.44;5075116;28;20036;-62
2024/03/10 02:50:44;;;;;;;11.70;5.57;;;;;;;17.41;36.83;99270.66;5057860;28;20037;-62
2024/03/10 02:53:10;;;;;;;10.50;5.40;;;;;;;17.36;37.07;99259.59;5039869;28;20389;-62
2024/03/10 02:55:36;;;;;;;14.40;6.03;;;;;;;17.46;37.47;99272.72;5056366;28;20510;-62
2024/03/10 02:58:03;;;;;;;9.20;4.88;;;;;;;17.52;37.11;99274.56;5056493;28;20028;-62
2024/03/10 03:00:32;;;;;;;13.27;6.05;;;;;;;17.54;37.19;99267.09;5056479;28;20032;-62
2024/03/10 03:02:59;;;;;;;9.65;5.25;;;;;;;17.56;36.81;99250.66;5039678;28;20055;-62
2024/03/10 03:05:26;;;;;;;11.60;5.22;;;;;;;17.59;37.00;99252.94;5056099;28;20032;-62
2024/03/10 03:07:53;;;;;;;13.35;5.28;;;;;;;17.59;36.24;99250.25;5056395;28;20045;-61
2024/03/10 03:10:18;;;;;;;9.95;5.00;;;;;;;17.58;36.90;99252.09;5056371;28;20072;-62
2024/03/10 03:12:43;;;;;;;10.32;5.22;;;;;;;17.58;36.00;99246.69;5056246;28;20127;-62
2024/03/10 03:15:09;;;;;;;15.43;6.10;;;;;;;17.58;36.41;99241.28;5056164;28;20082;-62
2024/03/10 03:17:35;;;;;;;13.55;6.50;;;;;;;17.59;36.21;99239.41;5056300;28;20036;-62
2024/03/10 03:20:02;;;;;;;11.45;5.03;;;;;;;17.56;37.04;99246.06;5055952;28;20098;-62
2024/03/10 03:22:27;;;;;;;10.73;6.10;;;;;;;17.50;36.23;99238.78;5073655;28;20430;-62
2024/03/10 03:24:53;;;;;;;10.95;6.05;;;;;;;17.50;36.60;99248.75;5026972;28;20099;-62
2024/03/10 03:27:20;;;;;;;11.18;5.00;;;;;;;17.45;36.40;99238.56;5036231;28;20049;-62
2024/03/10 03:29:45;;;;;;;8.90;4.85;;;;;;;17.42;36.89;99226.28;5036086;28;20045;-62
2024/03/10 03:32:11;;;;;;;14.43;5.60;;;;;;;17.43;36.72;99233.38;5019394;28;20037;-62
2024/03/10 03:34:36;;;;;;;9.30;5.10;;;;;;;17.42;37.08;99228.16;5019242;28;20032;-62
2024/03/10 03:37:03;;;;;;;12.95;6.22;;;;;;;17.39;37.51;99223.19;5036019;28;20115;-61
2024/03/10 03:39:28;;;;;;;10.63;5.25;;;;;;;17.33;36.92;99210.50;5035649;28;20235;-62
2024/03/10 03:41:54;;;;;;;9.50;5.00;;;;;;;17.30;37.06;99203.63;5052667;28;20127;-62
2024/03/10 03:44:19;;;;;;;11.73;6.10;;;;;;;17.31;37.00;99202.56;5035607;28;20033;-63
2024/03/10 03:46:44;;;;;;;9.45;5.10;;;;;;;17.27;36.95;99203.22;5035592;28;20055;-62
2024/03/10 03:49:10;;;;;;;10.30;5.72;;;;;;;17.23;36.72;99199.25;5035654;28;20171;-62
2024/03/10 03:51:35;;;;;;;10.05;4.90;;;;;;;17.25;37.50;99199.91;5035618;28;20111;-62
2024/03/10 03:54:02;;;;;;;9.95;5.38;;;;;;;17.23;37.15;99199.25;5035625;28;20024;-62
2024/03/10 03:56:27;;;;;;;10.77;5.65;;;;;;;17.24;36.94;99200.94;5035137;28;20029;-62
2024/03/10 03:58:53;;;;;;;11.60;5.28;;;;;;;17.21;36.78;99195.94;5035379;28;20033;-62
2024/03/10 04:01:18;;;;;;;15.82;5.65;;;;;;;17.15;36.82;99202.19;5053334;28;20083;-62
2024/03/10 04:03:44;;;;;;;14.68;5.70;;;;;;;17.15;36.91;99207.59;5053503;28;20060;-63
2024/03/10 04:06:09;;;;;;;11.07;5.28;;;;;;;17.12;37.31;99197.19;5019092;28;20036;-62
2024/03/10 04:08:34;;;;;;;13.90;5.32;;;;;;;17.09;37.16;99197.63;5031625;28;20033;-62
2024/03/10 04:11:00;;;;;;;11.55;5.13;;;;;;;17.08;37.27;99195.97;5015539;28;20064;-62
2024/03/10 04:13:25;;;;;;;12.65;5.95;;;;;;;17.10;36.84;99204.72;5033418;28;20029;-62
2024/03/10 04:15:51;;;;;;;14.00;5.88;;;;;;;17.11;37.08;99200.97;5032082;28;20050;-62
2024/03/10 04:18:16;;;;;;;12.75;4.68;;;;;;;17.12;36.92;99197.19;5033277;28;20037;-62
2024/03/10 04:20:45;;;;;;;14.23;5.63;;;;;;;17.09;36.66;99197.63;5033127;28;20040;-62
2024/03/10 04:23:10;;;;;;;12.93;5.32;;;;;;;17.11;37.33;99200.97;5051772;28;20094;-62
2024/03/10 04:25:35;;;;;;;14.05;6.20;;;;;;;17.13;37.23;99204.28;5051783;28;20033;-62
2024/03/10 04:28:03;;;;;;;14.30;5.28;;;;;;;17.08;36.77;99196.81;5052976;28;20060;-62
2024/03/10 04:30:29;;;;;;;11.07;5.88;;;;;;;17.10;36.86;99185.78;5051612;28;20039;-62
2024/03/10 04:32:54;;;;;;;9.93;4.97;;;;;;;17.11;37.15;99190.16;5051640;28;20112;-62
2024/03/10 04:35:20;;;;;;;12.55;5.22;;;;;;;17.11;36.88;99185.56;5035351;28;20031;-63
2024/03/10 04:37:48;;;;;;;11.05;4.78;;;;;;;17.13;36.79;99182.63;5035779;28;20428;-62
2024/03/10 04:40:16;;;;;;;12.02;5.32;;;;;;;17.13;36.94;99185.34;5052296;28;20040;-62
2024/03/10 04:42:41;;;;;;;11.13;4.32;;;;;;;17.12;37.36;99184.50;5051744;28;20029;-62
2024/03/10 04:45:07;;;;;;;13.70;5.35;;;;;;;17.09;36.70;99175.97;5051481;28;20571;-62
2024/03/10 04:47:33;;;;;;;12.32;4.70;;;;;;;17.08;37.66;99179.75;5051522;28;20025;-63
2024/03/10 04:50:01;;;;;;;9.43;5.15;;;;;;;17.04;37.90;99178.50;5034823;28;20033;-62
2024/03/10 04:52:27;;;;;;;9.07;5.15;;;;;;;17.03;37.66;99172.25;5053171;28;20037;-62
2024/03/10 04:54:52;;;;;;;11.70;4.75;;;;;;;17.00;36.86;99169.16;5056795;28;20048;-63
2024/03/10 04:57:22;;;;;;;9.15;4.90;;;;;;;17.02;37.11;99164.34;5038738;28;20040;-63
2024/03/10 04:59:48;;;;;;;12.15;4.65;;;;;;;17.01;37.68;99155.41;5055453;28;20112;-62
2024/03/10 05:02:14;;;;;;;10.65;5.00;;;;;;;16.99;37.48;99153.94;5056394;28;20120;-63
2024/03/10 05:04:39;;;;;;;9.35;4.97;;;;;;;17.01;37.54;99149.16;5055189;28;20044;-63
2024/03/10 05:07:04;;;;;;;13.27;5.43;;;;;;;16.98;36.66;99147.69;5055009;28;20416;-63
2024/03/10 05:09:30;;;;;;;10.30;5.63;;;;;;;16.97;37.36;99156.03;5055297;28;20037;-63
2024/03/10 05:11:56;;;;;;;8.73;4.65;;;;;;;16.98;37.65;99155.81;5055189;28;20460;-63
2024/03/10 05:14:21;;;;;;;11.57;5.10;;;;;;;17.00;37.11;99152.91;5055145;28;20115;-62
2024/03/10 05:16:47;;;;;;;9.60;4.55;;;;;;;17.02;37.39;99153.53;5055141;28;20111;-63
2024/03/10 05:19:12;;;;;;;11.18;5.15;;;;;;;17.01;37.80;99160.81;5054937;28;20039;-63
2024/03/10 05:21:37;;;;;;;14.05;5.57;;;;;;;17.03;37.80;99157.91;5055010;28;20032;-62
2024/03/10 05:24:03;;;;;;;10.80;4.50;;;;;;;17.02;37.07;99164.34;5038145;28;20452;-62
2024/03/10 05:26:28;;;;;;;7.97;5.05;;;;;;;17.01;37.11;99157.28;5038336;28;20500;-63
2024/03/10 05:28:54;;;;;;;10.93;5.53;;;;;;;17.01;36.52;99151.84;5055053;28;20041;-63
2024/03/10 05:31:30;;;;;;;10.35;4.47;;;;;;;17.01;37.71;99146.44;5054795;28;20063;-62
2024/03/10 05:33:59;;;;;;;9.88;5.13;;;;;;;17.01;37.01;99151.84;5037496;28;20444;-63
2024/03/10 05:36:25;;;;;;;9.57;5.22;;;;;;;17.00;36.54;99147.50;5055913;28;20094;-62
2024/03/10 05:38:50;;;;;;;15.57;5.47;;;;;;;17.00;37.38;99144.81;5056023;28;20044;-63
2024/03/10 05:41:16;;;;;;;8.45;4.68;;;;;;;17.00;37.43;99144.81;5038151;28;20063;-63
2024/03/10 05:43:42;;;;;;;9.50;4.60;;;;;;;17.00;36.80;99151.03;5037776;28;20027;-62
2024/03/10 05:46:08;;;;;;;10.55;4.40;;;;;;;16.98;37.39;99147.69;5055714;28;20029;-63
2024/03/10 05:48:34;;;;;;;8.70;4.45;;;;;;;16.99;37.44;99145.84;5054416;28;20428;-63
2024/03/10 05:50:59;;;;;;;10.00;4.88;;;;;;;16.96;38.03;99143.56;5056043;28;20415;-63
2024/03/10 05:53:24;;;;;;;7.88;4.45;;;;;;;16.98;37.45;99158.53;5057953;28;20084;-63
2024/03/10 05:55:52;;;;;;;11.35;4.47;;;;;;;16.96;37.58;99157.06;5037887;28;20481;-63
2024/03/10 05:58:17;;;;;;;9.38;4.05;;;;;;;16.91;37.21;99162.28;5037699;28;20028;-63
2024/03/10 06:00:43;;;;;;;7.00;4.22;;;;;;;16.85;37.44;99159.41;5055537;28;20028;-63
2024/03/10 06:03:09;;;;;;;9.10;4.70;;;;;;;16.84;37.70;99163.13;5053544;28;20392;-63
2024/03/10 06:05:34;;;;;;;7.70;4.13;;;;;;;16.83;37.83;99166.88;5054095;28;20029;-62
2024/03/10 06:08:00;;;;;;;10.98;5.07;;;;;;;16.84;37.71;99155.00;5053977;28;22176;-63
2024/03/10 06:10:26;;;;;;;10.43;4.95;;;;;;;16.83;37.61;99158.75;5037681;28;20052;-62
2024/03/10 06:12:51;;;;;;;8.32;4.40;;;;;;;16.82;38.10;99159.81;5054702;28;20036;-63
2024/03/10 06:15:19;;;;;;;12.05;5.47;;;;;;;16.84;36.95;99156.88;5055361;28;20481;-62
2024/03/10 06:18:02;;;;;;;10.05;5.03;;;;;;;16.83;37.27;99171.47;5054652;28;20035;-63
2024/03/10 06:25:55;;;;;;;9.60;5.10;;;;;;;16.76;36.91;99165.22;5053967;28;20068;-63
2024/03/10 06:28:22;;;;;;;11.73;5.18;;;;;;;16.74;37.50;99161.91;5053605;28;20049;-62
2024/03/10 06:30:47;;;;;;;11.13;5.28;;;;;;;16.72;36.89;99164.78;5037498;28;20033;-62
2024/03/10 06:33:13;;;;;;;11.73;5.78;;;;;;;16.70;37.76;99166.88;5053993;28;20095;-63
2024/03/10 06:35:38;;;;;;;9.50;5.30;;;;;;;16.70;37.06;99163.34;5053836;28;20029;-63
2024/03/10 06:38:03;;;;;;;9.95;5.45;;;;;;;16.70;36.74;99164.19;5037102;28;20128;-63
2024/03/10 06:40:29;;;;;;;9.93;4.57;;;;;;;16.68;38.27;99162.72;5036852;28;20523;-63
2024/03/10 06:42:54;;;;;;;11.20;5.40;;;;;;;16.66;37.83;99160.25;5053623;28;20132;-62
2024/03/10 06:45:19;;;;;;;11.60;5.70;;;;;;;16.66;37.57;99160.25;5037064;28;20531;-62
2024/03/10 06:47:45;;;;;;;8.85;5.30;;;;;;;16.69;36.76;99149.03;5053738;28;20036;-61
2024/03/10 06:50:10;;;;;;;10.55;5.15;;;;;;;16.69;37.45;99151.72;5053493;28;20067;-62
2024/03/10 06:52:36;;;;;;;10.57;4.93;;;;;;;16.70;38.15;99155.22;5053475;28;20029;-62
2024/03/10 06:55:03;;;;;;;13.10;5.38;;;;;;;16.70;37.50;99150.66;5036655;28;20459;-62
2024/03/10 06:57:28;;;;;;;10.93;4.88;;;;;;;16.68;37.96;99158.16;5053329;28;20120;-62
2024/03/10 06:59:54;;;;;;;7.72;4.68;;;;;;;16.68;36.98;99158.16;5036672;28;20468;-65
2024/03/10 07:02:22;;;;;;;7.72;4.80;;;;;;;16.68;37.36;99163.56;5054908;28;20083;-62
2024/03/10 07:04:47;;;;;;;8.48;5.05;;;;;;;16.67;37.23;99161.91;5053107;28;20519;-62
2024/03/10 07:07:13;;;;;;;10.43;4.43;;;;;;;16.69;37.91;99167.94;5053444;28;20049;-62
2024/03/10 07:09:40;;;;;;;9.77;5.00;;;;;;;16.71;37.93;99182.06;5053309;28;20037;-63
2024/03/10 07:12:06;;;;;;;8.77;4.32;;;;;;;16.73;37.51;99193.50;5053139;28;20033;-63
2024/03/10 07:14:32;;;;;;;9.43;5.05;;;;;;;16.76;37.41;99198.50;5054050;28;20489;-63
2024/03/10 07:16:58;;;;;;;8.88;5.03;;;;;;;16.79;38.57;99213.47;5052921;28;20029;-62
2024/03/10 07:19:23;;;;;;;9.73;5.28;;;;;;;16.79;37.97;99208.91;5036110;28;20460;-63
2024/03/10 07:21:48;;;;;;;10.50;5.72;;;;;;;16.84;37.48;99210.97;5052659;28;20139;-62
2024/03/10 07:24:14;;;;;;;10.70;4.75;;;;;;;16.92;36.86;99207.25;5035773;28;20115;-62
2024/03/10 07:26:41;;;;;;;12.10;5.05;;;;;;;16.96;37.74;99203.06;5053603;28;20055;-62
2024/03/10 07:29:06;;;;;;;8.23;5.22;;;;;;;17.02;37.62;99199.53;5052536;28;20071;-63
2024/03/10 07:31:32;;;;;;;7.55;4.85;;;;;;;17.07;37.27;99194.31;5052267;28;20515;-63
2024/03/10 07:33:57;;;;;;;9.88;4.85;;;;;;;17.11;37.39;99195.56;5052114;28;20029;-63
2024/03/10 07:36:23;;;;;;;11.60;5.13;;;;;;;17.11;37.78;99184.72;5052253;28;20116;-62
2024/03/10 07:38:50;;;;;;;10.98;5.35;;;;;;;17.12;37.12;99186.38;5052510;28;20029;-63
2024/03/10 07:41:15;;;;;;;8.60;4.65;;;;;;;17.14;37.49;99187.03;5053647;28;20033;-63
2024/03/10 07:43:41;;;;;;;11.48;5.25;;;;;;;17.20;37.41;99184.28;5052213;28;20033;-63
2024/03/10 07:46:07;;;;;;;9.98;5.28;;;;;;;17.22;37.18;99175.97;5035645;28;20025;-62
2024/03/10 07:48:32;;;;;;;9.73;4.75;;;;;;;17.24;37.95;99177.41;5035572;28;20178;-62
2024/03/10 07:50:58;;;;;;;11.20;5.13;;;;;;;17.29;37.28;99183.00;5035435;28;20064;-63
2024/03/10 07:53:24;;;;;;;11.05;5.20;;;;;;;17.33;37.42;99183.44;5053175;28;20164;-62
2024/03/10 07:55:49;;;;;;;9.05;5.50;;;;;;;17.38;36.92;99181.75;5052129;28;20033;-62
2024/03/10 07:58:15;;;;;;;9.18;5.20;;;;;;;17.40;37.22;99185.06;5051951;28;20071;-63
2024/03/10 08:00:41;;;;;;;11.40;5.43;;;;;;;17.42;37.07;99188.38;5052098;28;20538;-63
2024/03/10 08:03:07;;;;;;;8.25;4.57;;;;;;;17.50;38.02;99189.19;5052024;28;20033;-65
2024/03/10 08:05:32;;;;;;;10.00;5.55;;;;;;;17.54;37.60;99194.00;5053197;28;20060;-63
2024/03/10 08:07:58;;;;;;;11.25;5.88;;;;;;;17.54;37.47;99201.28;5036808;28;20053;-63
2024/03/10 08:10:23;;;;;;;9.35;4.85;;;;;;;17.61;37.84;99197.53;5051944;28;20646;-62
2024/03/10 08:12:49;;;;;;;13.45;5.50;;;;;;;17.67;37.81;99204.78;5052914;28;20132;-63
2024/03/10 08:15:16;;;;;;;10.43;4.93;;;;;;;17.77;37.58;99202.44;5051504;28;20059;-62
2024/03/10 08:17:42;;;;;;;11.00;5.25;;;;;;;17.82;36.98;99204.50;5051746;28;20500;-62
2024/03/10 08:20:08;;;;;;;12.02;5.40;;;;;;;17.82;37.08;99199.09;5035349;28;20037;-62
2024/03/10 08:22:35;;;;;;;14.13;5.72;;;;;;;17.86;37.56;99203.88;5052931;28;20029;-62
2024/03/10 08:25:03;;;;;;;12.57;5.13;;;;;;;17.88;37.51;99199.06;5051592;28;20029;-62
2024/03/10 08:27:28;;;;;;;8.60;4.85;;;;;;;17.93;37.02;99212.78;5050746;28;20029;-62
2024/03/10 08:29:54;;;;;;;10.23;5.70;;;;;;;17.95;37.73;99221.53;5035027;28;20072;-62
2024/03/10 08:32:20;;;;;;;10.85;5.30;;;;;;;17.94;37.51;99233.44;5034938;28;20099;-62
2024/03/10 08:34:46;;;;;;;8.43;4.45;;;;;;;18.04;37.88;99279.84;5052584;28;20036;-62
2024/03/10 08:37:13;;;;;;;11.40;5.90;;;;;;;18.06;37.79;99286.94;5041038;28;20120;-62
2024/03/10 08:39:39;;;;;;;10.85;5.25;;;;;;;18.09;37.22;99272.97;5032747;28;20500;-62
2024/03/10 08:42:06;;;;;;;9.70;4.53;;;;;;;18.12;37.33;99258.97;5031832;28;20047;-62
2024/03/10 08:44:32;;;;;;;10.23;5.60;;;;;;;18.14;37.02;99275.84;5031496;28;20456;-62
2024/03/10 08:46:57;;;;;;;13.23;5.20;;;;;;;18.16;36.98;99271.03;5031684;28;20037;-62
2024/03/10 08:49:23;;;;;;;10.25;5.55;;;;;;;18.25;37.08;99258.91;5033026;28;20495;-62
2024/03/10 08:51:48;;;;;;;6.30;4.13;;;;;;;18.30;37.58;99240.09;5031602;28;20029;-62
2024/03/10 08:54:15;;;;;;;8.82;4.78;;;;;;;18.42;37.27;99257.34;5031180;28;20030;-62
2024/03/10 08:56:40;;;;;;;8.10;5.03;;;;;;;18.57;37.12;99252.47;5032156;28;20033;-62
2024/03/10 08:59:17;;;;;;;6.40;4.10;;;;;;;18.82;36.22;99252.50;5031411;28;20035;-62
2024/03/10 09:01:43;;;;;;;9.23;4.63;;;;;;;19.09;36.88;99243.94;5031116;28;20041;-61
2024/03/10 09:04:08;;;;;;;6.88;4.43;;;;;;;19.32;36.26;99234.31;5032907;28;20076;-62
2024/03/10 09:06:36;;;;;;;9.75;4.60;;;;;;;19.57;35.89;99232.41;5031840;28;20032;-62
2024/03/10 09:09:04;;;;;;;6.82;4.05;;;;;;;19.74;36.40;99228.00;5032824;28;20051;-62
2024/03/10 09:11:30;;;;;;;10.80;5.07;;;;;;;19.90;36.55;99219.25;5031642;28;20052;-62
2024/03/10 09:13:58;;;;;;;8.32;4.10;;;;;;;20.00;36.14;99200.50;5032952;28;20481;-62
2024/03/10 09:16:24;;;;;;;7.95;4.20;;;;;;;20.17;35.83;99211.56;5014939;28;20025;-63
2024/03/10 09:18:50;;;;;;;9.55;4.40;;;;;;;20.28;35.38;99208.91;5032680;28;20018;-62
2024/03/10 09:21:16;;;;;;;7.43;4.03;;;;;;;20.33;35.80;99195.44;5031364;28;20099;-62
2024/03/10 09:23:42;;;;;;;6.93;3.70;;;;;;;20.45;35.24;99200.09;5015267;28;20083;-62
2024/03/10 09:26:07;;;;;;;8.85;4.53;;;;;;;20.56;35.81;99204.72;5032721;28;20022;-62
2024/03/10 09:28:33;;;;;;;7.93;3.97;;;;;;;20.57;35.36;99199.06;5030950;28;20489;-62
2024/03/10 09:30:58;;;;;;;10.63;4.80;;;;;;;20.57;35.37;99200.94;5031532;28;20030;-63
2024/03/10 09:33:23;;;;;;;7.95;4.43;;;;;;;20.52;35.21;99198.09;5014136;28;20423;-62
2024/03/10 09:35:53;;;;;;;7.70;3.90;;;;;;;20.48;35.44;99199.63;5031453;28;20024;-62
2024/03/10 09:38:19;;;;;;;7.82;4.85;;;;;;;20.49;36.08;99196.66;5032734;28;20041;-62
2024/03/10 09:40:45;;;;;;;11.77;4.45;;;;;;;20.50;35.60;99195.59;5035234;28;20473;-62
2024/03/10 09:43:11;;;;;;;7.53;4.60;;;;;;;20.48;35.20;99208.63;5034936;28;20108;-62
2024/03/10 09:45:41;;;;;;;10.57;4.90;;;;;;;20.48;35.70;99207.78;5034732;28;20030;-62
2024/03/10 09:48:09;;;;;;;10.90;4.95;;;;;;;20.46;35.57;99205.31;5018445;28;20060;-62
2024/03/10 09:50:35;;;;;;;8.63;4.40;;;;;;;20.43;35.71;99210.38;5034736;28;20033;-62
2024/03/10 09:53:01;;;;;;;9.48;4.93;;;;;;;20.36;35.53;99201.47;5035662;28;20032;-62
2024/03/10 09:55:27;;;;;;;8.10;4.68;;;;;;;20.29;35.67;99199.72;5035481;28;20026;-62
2024/03/10 09:57:53;;;;;;;9.75;4.57;;;;;;;20.25;35.73;99201.22;5034668;28;20041;-62
2024/03/10 10:00:23;;;;;;;10.00;5.05;;;;;;;20.25;35.43;99206.66;5017627;28;20026;-62
2024/03/10 10:02:53;;;;;;;7.55;4.40;;;;;;;20.28;35.67;99208.06;5034123;28;20036;-62
2024/03/10 10:05:29;;;;;;;9.32;4.43;;;;;;;20.26;35.39;99200.16;5017449;28;20095;-62
2024/03/10 10:07:55;;;;;;;9.13;4.47;;;;;;;20.25;35.82;99195.78;5045870;28;20048;-64
2024/03/10 10:10:20;;;;;;;8.05;4.45;;;;;;;20.29;35.52;99188.00;5054992;28;20091;-64
2024/03/10 10:12:49;;;;;;;10.73;4.55;;;;;;;20.38;35.46;99194.72;5037287;28;20029;-63
2024/03/10 10:15:17;;;;;;;7.30;4.95;;;;;;;20.57;35.06;99195.50;5037369;28;20241;-65
2024/03/10 10:17:52;;;;;;;8.18;4.63;;;;;;;20.87;35.18;99190.81;5037699;28;20029;-64
2024/03/10 10:20:23;;;;;;;8.98;4.85;;;;;;;20.98;35.22;99190.00;5036989;28;20044;-64
2024/03/10 10:22:51;;;;;;;8.85;4.75;;;;;;;21.10;35.22;99190.03;5054870;28;20112;-65
2024/03/10 10:25:17;;;;;;;8.20;4.45;;;;;;;21.18;34.58;99187.78;5054570;28;20060;-64
2024/03/10 10:27:52;;;;;;;9.68;4.72;;;;;;;21.29;35.19;99186.94;5054718;28;20497;-64
2024/03/10 10:30:28;;;;;;;10.65;4.97;;;;;;;21.41;34.78;99185.00;5036830;28;20414;-64
2024/03/10 10:33:07;;;;;;;7.80;4.75;;;;;;;21.51;34.65;99191.75;5036777;28;20033;-64
2024/03/10 10:35:42;;;;;;;10.38;4.80;;;;;;;21.54;34.67;99202.16;5037511;28;20039;-64
2024/03/10 10:38:14;;;;;;;9.13;4.97;;;;;;;21.55;35.23;99204.69;5036898;28;20106;-64
2024/03/10 10:40:56;;;;;;;9.00;4.80;;;;;;;21.53;35.00;99214.97;5036714;28;20090;-64
2024/03/10 10:43:22;;;;;;;10.03;4.93;;;;;;;21.52;34.86;99224.22;5020892;28;20416;-64
2024/03/10 10:45:48;;;;;;;8.80;5.13;;;;;;;21.48;35.15;99210.25;5036881;28;20262;-65
2024/03/10 10:48:15;;;;;;;11.75;5.00;;;;;;;21.42;34.21;99218.53;5020400;28;20012;-64
2024/03/10 10:50:43;;;;;;;8.70;4.68;;;;;;;21.40;35.19;99213.34;5054111;28;20025;-64
2024/03/10 10:53:11;;;;;;;7.28;5.00;;;;;;;21.43;34.32;99218.31;5036310;28;20024;-64
2024/03/10 10:55:40;;;;;;;8.27;4.75;;;;;;;21.55;35.13;99220.19;5020027;28;20389;-64
2024/03/10 10:58:06;;;;;;;10.20;5.07;;;;;;;21.62;34.85;99220.88;5020304;28;20449;-64
2024/03/10 11:00:32;;;;;;;6.80;4.90;;;;;;;21.75;34.46;99226.06;5036447;28;20055;-63
2024/03/10 11:03:13;;;;;;;8.82;4.80;;;;;;;21.99;33.65;99211.34;5036265;28;20472;-64
2024/03/10 11:05:40;;;;;;;12.20;5.20;;;;;;;22.04;33.68;99209.53;5020257;28;20026;-64
2024/03/10 11:08:06;;;;;;;6.57;4.18;;;;;;;22.12;34.59;99202.84;5036163;28;20052;-63
2024/03/10 11:10:49;;;;;;;9.20;5.45;;;;;;;22.13;33.90;99196.34;5036405;28;20029;-64
2024/03/10 11:13:15;;;;;;;8.75;5.35;;;;;;;22.17;34.55;99185.75;5036375;28;20036;-64
2024/03/10 11:15:44;;;;;;;9.60;5.30;;;;;;;22.44;34.12;99174.00;5036238;28;20420;-64
2024/03/10 11:18:25;;;;;;;9.23;4.93;;;;;;;23.19;33.24;99189.97;5036109;28;20037;-63
2024/03/10 11:20:51;;;;;;;8.23;5.03;;;;;;;23.81;32.81;99181.53;5053807;28;20056;-63
2024/03/10 11:23:37;;;;;;;8.23;5.35;;;;;;;24.61;32.22;99176.94;5019436;28;20037;-63
2024/03/10 11:26:28;;;;;;;8.73;5.13;;;;;;;24.84;32.19;99181.28;5019511;28;20033;-63
2024/03/10 11:28:55;;;;;;;7.35;4.47;;;;;;;25.09;31.92;99184.22;5031177;28;20033;-63
2024/03/10 11:31:23;;;;;;;10.95;5.32;;;;;;;25.69;31.32;99189.22;5053534;28;20040;-63
2024/03/10 11:33:49;;;;;;;11.10;5.57;;;;;;;25.57;31.58;99190.56;5053838;28;20029;-63
2024/03/10 11:36:16;;;;;;;11.55;5.32;;;;;;;25.40;32.23;99190.72;5035697;28;20037;-63
2024/03/10 11:38:42;;;;;;;9.63;5.03;;;;;;;25.12;32.22;99188.34;5035748;28;20044;-63
2024/03/10 11:41:10;;;;;;;9.70;5.65;;;;;;;24.94;32.06;99195.03;5035688;28;20082;-63
2024/03/10 11:43:41;;;;;;;9.20;5.10;;;;;;;24.82;32.08;99199.88;5019135;28;20037;-64
2024/03/10 11:46:20;;;;;;;8.95;5.35;;;;;;;24.63;32.22;99195.84;5053329;28;20044;-63
2024/03/10 11:48:52;;;;;;;9.98;5.68;;;;;;;24.56;31.90;99189.78;5035655;28;20388;-63